createdAt,value
2019-05-04T00:01:11.154Z,2.86
2019-05-04T00:03:37.810Z,2.91
2019-05-04T00:06:05.354Z,2.89
2019-05-04T00:08:34.394Z,2.86
2019-05-04T00:11:00.937Z,2.81
2019-05-04T00:13:27.697Z,2.81
2019-05-04T00:15:54.886Z,2.83
2019-05-04T00:18:21.690Z,2.82
2019-05-04T00:20:53.173Z,2.85
2019-05-04T00:23:16.940Z,2.34
2019-05-04T00:25:45.353Z,2.89
2019-05-04T00:28:12.199Z,2.92
2019-05-04T00:30:38.981Z,2.93
2019-05-04T00:33:45.338Z,2.91
2019-05-04T00:36:19.315Z,2.98
2019-05-04T00:38:46.164Z,2.96
2019-05-04T00:41:12.809Z,3.02
2019-05-04T00:43:39.701Z,2.90
2019-05-04T00:46:06.405Z,2.82
2019-05-04T00:48:34.604Z,2.78
2019-05-04T00:51:01.569Z,2.75
2019-05-04T00:53:28.411Z,2.73
2019-05-04T00:56:14.741Z,2.70
2019-05-04T00:58:45.081Z,2.72
2019-05-04T01:01:35.420Z,2.67
2019-05-04T01:04:02.157Z,2.66
2019-05-04T01:06:29.050Z,2.61
2019-05-04T01:08:55.866Z,2.64
2019-05-04T01:11:25.243Z,2.56
2019-05-04T01:13:59.294Z,2.58
2019-05-04T01:16:26.157Z,2.58
2019-05-04T01:18:54.890Z,2.59
2019-05-04T01:21:25.251Z,2.58
2019-05-04T01:23:52.077Z,2.57
2019-05-04T01:26:20.053Z,2.55
2019-05-04T01:28:47.515Z,2.58
2019-05-04T01:31:14.910Z,2.60
2019-05-04T01:34:00.135Z,2.62
2019-05-04T01:36:28.848Z,2.61
2019-05-04T01:39:15.142Z,2.68
2019-05-04T01:41:41.849Z,2.75
2019-05-04T01:44:09.522Z,2.72
2019-05-04T01:46:36.408Z,2.75
2019-05-04T01:49:05.137Z,2.76
2019-05-04T01:51:32.015Z,2.73
2019-05-04T01:53:58.802Z,2.65
2019-05-04T01:56:28.349Z,2.62
2019-05-04T01:59:19.284Z,2.59
2019-05-04T02:01:45.966Z,2.60
2019-05-04T02:04:14.458Z,2.60
2019-05-04T02:06:41.288Z,2.62
2019-05-04T02:09:15.917Z,2.61
2019-05-04T02:11:44.772Z,2.64
2019-05-04T02:14:11.333Z,2.68
2019-05-04T02:16:39.058Z,2.70
2019-05-04T02:19:05.713Z,2.72
2019-05-04T02:21:35.317Z,2.72
2019-05-04T02:24:02.245Z,2.72
2019-05-04T02:26:41.935Z,2.70
2019-05-04T02:29:15.438Z,2.68
2019-05-04T02:31:45.731Z,2.54
2019-05-04T02:34:11.783Z,2.49
2019-05-04T02:36:38.572Z,2.44
2019-05-04T02:39:10.444Z,2.40
2019-05-04T02:41:37.883Z,2.35
2019-05-04T02:44:06.015Z,2.23
2019-05-04T02:46:36.068Z,2.22
2019-05-04T02:49:16.023Z,2.16
2019-05-04T02:51:51.581Z,2.10
2019-05-04T02:54:18.603Z,2.09
2019-05-04T02:56:46.314Z,2.02
2019-05-04T02:59:15.313Z,2.02
2019-05-04T03:01:45.970Z,1.95
2019-05-04T03:04:11.700Z,1.88
2019-05-04T03:06:38.371Z,1.90
2019-05-04T03:09:06.349Z,1.89
2019-05-04T03:11:35.831Z,1.88
2019-05-04T03:14:01.841Z,1.90
2019-05-04T03:16:40.658Z,1.98
2019-05-04T03:18:59.288Z,2.04
2019-05-04T03:21:36.478Z,2.07
2019-05-04T03:24:25.221Z,2.08
2019-05-04T03:26:51.676Z,2.04
2019-05-04T03:29:18.445Z,2.03
2019-05-04T03:31:48.130Z,1.97
2019-05-04T03:34:42.170Z,1.92
2019-05-04T03:36:42.432Z,1.86
2019-05-04T03:39:09.404Z,1.83
2019-05-04T03:41:36.243Z,1.80
2019-05-04T03:44:05.977Z,1.77
2019-05-04T03:46:55.624Z,1.75
2019-05-04T03:49:31.787Z,1.76
2019-05-04T03:51:58.523Z,1.73
2019-05-04T03:54:26.464Z,1.71
2019-05-04T03:56:55.900Z,1.71
2019-05-04T03:59:21.717Z,1.74
2019-05-04T04:01:48.530Z,1.79
2019-05-04T04:04:15.535Z,1.78
2019-05-04T04:06:42.456Z,1.79
2019-05-04T04:09:14.697Z,1.78
2019-05-04T04:11:38.107Z,1.80
2019-05-04T04:14:05.655Z,1.82
2019-05-04T04:16:39.514Z,1.87
2019-05-04T04:19:06.447Z,1.94
2019-05-04T04:21:36.412Z,1.97
2019-05-04T04:24:02.331Z,2.02
2019-05-04T04:26:48.753Z,2.03
2019-05-04T04:29:19.948Z,2.04
2019-05-04T04:31:46.875Z,2.09
2019-05-04T04:34:15.707Z,2.09
2019-05-04T04:36:42.233Z,1.98
2019-05-04T04:39:24.108Z,1.77
2019-05-04T04:41:37.951Z,1.61
2019-05-04T04:44:06.171Z,1.61
2019-05-04T04:46:35.610Z,1.53
2019-05-04T04:49:01.886Z,1.52
2019-05-04T04:51:28.559Z,1.45
2019-05-04T04:53:56.235Z,1.54
2019-05-04T04:56:25.941Z,1.60
2019-05-04T04:58:55.853Z,1.57
2019-05-04T05:01:25.745Z,1.56
2019-05-04T05:03:55.182Z,1.66
2019-05-04T05:06:21.212Z,1.72
2019-05-04T05:08:47.921Z,1.73
2019-05-04T05:11:15.218Z,1.82
2019-05-04T05:13:42.089Z,1.90
2019-05-04T05:16:08.857Z,1.94
2019-05-04T05:18:35.727Z,2.07
2019-05-04T05:21:30.827Z,2.13
2019-05-04T05:23:57.614Z,2.22
2019-05-04T05:26:24.774Z,2.32
2019-05-04T05:28:51.979Z,2.38
2019-05-04T05:31:39.036Z,2.44
2019-05-04T05:34:25.279Z,2.55
2019-05-04T05:36:55.191Z,2.62
2019-05-04T05:39:21.766Z,2.68
2019-05-04T05:41:49.959Z,2.72
2019-05-04T05:44:17.075Z,2.81
2019-05-04T05:47:09.813Z,2.85
2019-05-04T05:50:04.447Z,2.90
2019-05-04T05:52:44.915Z,2.99
2019-05-04T05:55:27.936Z,3.05
2019-05-04T05:58:08.853Z,3.12
2019-05-04T06:00:54.990Z,3.19
2019-05-04T06:03:39.244Z,3.34
2019-05-04T06:06:11.254Z,3.44
2019-05-04T06:08:39.426Z,3.60
2019-05-04T06:11:08.078Z,3.53
2019-05-04T06:13:41.720Z,3.49
2019-05-04T06:16:34.431Z,3.52
2019-05-04T06:19:07.191Z,3.52
2019-05-04T06:21:47.224Z,3.36
2019-05-04T06:24:24.464Z,3.40
2019-05-04T06:27:14.404Z,3.38
2019-05-04T06:29:48.467Z,3.45
2019-05-04T06:32:28.472Z,3.70
2019-05-04T06:35:12.445Z,3.72
2019-05-04T06:37:59.466Z,3.67
2019-05-04T06:40:36.763Z,3.84
2019-05-04T06:43:19.631Z,3.86
2019-05-04T06:45:59.220Z,3.96
2019-05-04T06:48:30.952Z,3.99
2019-05-04T06:51:05.343Z,4.10
2019-05-04T06:53:56.289Z,4.16
2019-05-04T06:56:38.868Z,4.39
2019-05-04T06:59:05.898Z,4.64
2019-05-04T07:01:34.521Z,4.51
2019-05-04T07:04:01.397Z,4.44
2019-05-04T07:06:29.750Z,4.64
2019-05-04T07:08:56.684Z,4.55
2019-05-04T07:11:31.653Z,4.51
2019-05-04T07:13:55.749Z,4.65
2019-05-04T07:16:20.635Z,4.58
2019-05-04T07:18:47.414Z,4.67
2019-05-04T07:21:15.837Z,4.72
2019-05-04T07:23:44.684Z,4.64
2019-05-04T07:26:11.277Z,4.64
2019-05-04T07:28:40.318Z,4.71
2019-05-04T07:31:21.687Z,4.73
2019-05-04T07:33:56.226Z,4.75
2019-05-04T07:36:40.287Z,4.95
2019-05-04T07:39:14.770Z,5.14
2019-05-04T07:41:49.037Z,5.21
2019-05-04T07:44:14.888Z,5.36
2019-05-04T07:46:45.130Z,5.44
2019-05-04T07:49:10.590Z,5.51
2019-05-04T07:51:42.502Z,5.63
2019-05-04T07:54:06.229Z,5.72
2019-05-04T07:56:37.159Z,5.83
2019-05-04T07:59:01.692Z,5.82
2019-05-04T08:01:28.905Z,5.87
2019-05-04T08:03:59.480Z,5.73
2019-05-04T08:06:24.867Z,5.60
2019-05-04T08:08:59.651Z,6.34
2019-05-04T08:11:28.403Z,6.11
2019-05-04T08:13:59.184Z,5.76
2019-05-04T08:16:24.923Z,6.48
2019-05-04T08:18:58.712Z,6.73
2019-05-04T08:21:22.368Z,6.68
2019-05-04T08:23:49.510Z,6.67
2019-05-04T08:26:19.885Z,6.48
2019-05-04T08:28:45.998Z,6.54
2019-05-04T08:31:15.236Z,6.02
2019-05-04T08:33:42.121Z,6.29
2019-05-04T08:36:14.190Z,6.67
2019-05-04T08:38:41.440Z,6.87
2019-05-04T08:41:06.154Z,7.24
2019-05-04T08:43:35.085Z,6.94
2019-05-04T08:46:08.746Z,7.00
2019-05-04T08:48:42.079Z,6.54
2019-05-04T08:51:33.571Z,6.63
2019-05-04T08:53:59.072Z,6.83
2019-05-04T08:56:40.193Z,6.93
2019-05-04T08:59:12.289Z,6.86
2019-05-04T09:01:59.094Z,6.58
2019-05-04T09:04:28.681Z,6.51
2019-05-04T09:07:03.680Z,6.69
2019-05-04T09:09:26.594Z,7.16
2019-05-04T09:11:51.867Z,7.56
2019-05-04T09:14:30.121Z,7.15
2019-05-04T09:16:48.326Z,6.79
2019-05-04T09:19:19.028Z,6.94
2019-05-04T09:21:45.511Z,7.66
2019-05-04T09:24:14.605Z,6.91
2019-05-04T09:26:47.467Z,6.68
2019-05-04T09:29:11.045Z,7.36
2019-05-04T09:31:39.204Z,7.50
2019-05-04T09:34:06.167Z,7.80
2019-05-04T09:36:37.865Z,7.49
2019-05-04T09:39:01.885Z,7.36
2019-05-04T09:41:44.901Z,7.55
2019-05-04T09:44:14.819Z,7.78
2019-05-04T09:46:47.604Z,7.88
2019-05-04T09:49:10.014Z,7.86
2019-05-04T09:51:41.351Z,7.89
2019-05-04T09:54:09.814Z,8.01
2019-05-04T09:56:36.745Z,8.38
2019-05-04T09:59:07.913Z,8.52
2019-05-04T10:01:32.236Z,8.27
2019-05-04T10:03:59.026Z,8.24
2019-05-04T10:06:30.444Z,8.45
2019-05-04T10:08:54.981Z,8.56
2019-05-04T10:11:34.983Z,8.47
2019-05-04T10:14:17.973Z,8.97
2019-05-04T10:16:55.433Z,8.97
2019-05-04T10:19:24.479Z,8.97
2019-05-04T10:21:53.625Z,8.99
2019-05-04T10:24:19.729Z,9.23
2019-05-04T10:27:00.335Z,9.23
2019-05-04T10:29:27.470Z,9.64
2019-05-04T10:31:56.116Z,9.29
2019-05-04T10:34:24.153Z,9.36
2019-05-04T10:36:51.105Z,9.36
2019-05-04T10:39:18.050Z,8.87
2019-05-04T10:41:45.390Z,8.58
2019-05-04T10:44:12.203Z,8.73
2019-05-04T10:46:39.315Z,8.21
2019-05-04T10:49:06.257Z,7.79
2019-05-04T10:51:34.402Z,7.60
2019-05-04T10:54:01.130Z,7.60
2019-05-04T10:56:27.805Z,7.32
2019-05-04T10:58:54.631Z,7.40
2019-05-04T11:01:21.377Z,7.31
2019-05-04T11:03:48.050Z,7.86
2019-05-04T11:06:15.732Z,8.17
2019-05-04T11:08:42.603Z,8.50
2019-05-04T11:11:20.704Z,8.65
2019-05-04T11:13:38.319Z,8.15
2019-05-04T11:16:05.213Z,8.63
2019-05-04T11:18:32.005Z,8.63
2019-05-04T11:20:58.802Z,8.32
2019-05-04T11:23:25.518Z,9.02
2019-05-04T11:25:56.938Z,9.42
2019-05-04T11:28:25.552Z,9.44
2019-05-04T11:30:52.212Z,9.44
2019-05-04T11:33:18.913Z,9.19
2019-05-04T11:35:45.839Z,8.47
2019-05-04T11:38:14.641Z,8.22
2019-05-04T11:40:41.743Z,8.22
2019-05-04T11:43:08.423Z,8.80
2019-05-04T11:45:35.540Z,9.09
2019-05-04T11:48:02.490Z,9.09
2019-05-04T11:50:29.175Z,9.32
2019-05-04T11:52:55.872Z,9.09
2019-05-04T11:55:24.659Z,9.07
2019-05-04T11:57:51.229Z,9.07
2019-05-04T12:00:21.470Z,9.82
2019-05-04T12:02:58.703Z,9.82
2019-05-04T12:05:26.788Z,9.63
2019-05-04T12:07:57.671Z,9.63
2019-05-04T12:10:27.277Z,9.77
2019-05-04T12:12:54.708Z,9.74
2019-05-04T12:15:21.671Z,10.41
2019-05-04T12:17:48.362Z,10.41
2019-05-04T12:20:15.233Z,10.76
2019-05-04T12:22:42.037Z,10.80
2019-05-04T12:25:08.905Z,10.35
2019-05-04T12:27:35.696Z,10.55
2019-05-04T12:30:04.515Z,10.75
2019-05-04T12:32:32.007Z,10.83
2019-05-04T12:34:58.864Z,10.16
2019-05-04T12:37:27.475Z,9.93
2019-05-04T12:39:54.799Z,9.33
2019-05-04T12:42:21.666Z,9.33
2019-05-04T12:44:48.356Z,9.31
2019-05-04T12:47:15.038Z,9.27
2019-05-04T12:49:41.813Z,10.91
2019-05-04T12:52:08.532Z,10.91
2019-05-04T12:54:36.133Z,10.57
2019-05-04T12:57:05.231Z,10.19
2019-05-04T12:59:31.740Z,9.81
2019-05-04T13:01:58.524Z,9.79
2019-05-04T13:04:25.305Z,9.79
2019-05-04T13:06:52.005Z,9.32
2019-05-04T13:09:18.695Z,8.94
2019-05-04T13:11:45.413Z,8.88
2019-05-04T13:14:15.944Z,8.73
2019-05-04T13:16:40.715Z,8.60
2019-05-04T13:19:09.474Z,8.50
2019-05-04T13:21:36.292Z,8.37
2019-05-04T13:24:05.011Z,8.45
2019-05-04T13:26:34.339Z,8.25
2019-05-04T13:29:02.858Z,8.56
2019-05-04T13:31:29.857Z,9.34
2019-05-04T13:33:56.634Z,10.06
2019-05-04T13:36:24.799Z,10.65
2019-05-04T13:38:51.566Z,10.08
2019-05-04T13:41:18.256Z,9.99
2019-05-04T13:43:45.561Z,10.81
2019-05-04T13:46:12.550Z,10.81
2019-05-04T13:48:39.454Z,11.19
2019-05-04T13:51:06.117Z,11.71
2019-05-04T13:53:34.313Z,12.28
2019-05-04T13:56:11.666Z,12.42
2019-05-04T13:58:51.133Z,12.13
2019-05-04T14:01:37.017Z,11.45
2019-05-04T14:04:06.898Z,11.15
2019-05-04T14:06:35.290Z,11.22
2019-05-04T14:09:04.620Z,11.70
2019-05-04T14:11:34.469Z,11.84
2019-05-04T14:14:01.403Z,11.97
2019-05-04T14:16:28.105Z,11.89
2019-05-04T14:18:55.425Z,11.61
2019-05-04T14:21:22.267Z,11.29
2019-05-04T14:23:49.053Z,11.27
2019-05-04T14:26:16.096Z,11.47
2019-05-04T14:28:44.775Z,11.17
2019-05-04T14:31:11.365Z,11.43
2019-05-04T14:33:38.257Z,10.85
2019-05-04T14:36:05.053Z,10.63
2019-05-04T14:38:31.853Z,9.95
2019-05-04T14:40:58.721Z,9.95
2019-05-04T14:43:27.317Z,9.46
2019-05-04T14:46:04.275Z,9.46
2019-05-04T14:48:36.302Z,9.43
2019-05-04T14:51:04.653Z,9.60
2019-05-04T14:53:31.746Z,10.20
2019-05-04T14:55:58.426Z,10.05
2019-05-04T14:58:25.097Z,10.15
2019-05-04T15:00:51.901Z,10.11
2019-05-04T15:03:18.587Z,10.11
2019-05-04T15:05:45.369Z,10.19
2019-05-04T15:08:12.249Z,10.35
2019-05-04T15:10:38.934Z,10.35
2019-05-04T15:13:05.829Z,10.21
2019-05-04T15:15:33.677Z,9.95
2019-05-04T15:18:00.466Z,10.30
2019-05-04T15:20:52.987Z,10.77
2019-05-04T15:23:19.697Z,10.98
2019-05-04T15:25:46.592Z,10.90
2019-05-04T15:28:13.267Z,10.90
2019-05-04T15:30:40.040Z,10.51
2019-05-04T15:33:06.842Z,10.38
2019-05-04T15:35:34.174Z,10.38
2019-05-04T15:38:00.997Z,10.43
2019-05-04T15:40:27.814Z,10.36
2019-05-04T15:42:54.482Z,10.36
2019-05-04T15:45:28.795Z,10.20
2019-05-04T15:48:06.970Z,10.23
2019-05-04T15:50:38.309Z,10.23
2019-05-04T15:53:12.338Z,10.33
2019-05-04T15:55:49.930Z,10.33
2019-05-04T15:58:25.046Z,10.14
2019-05-04T16:00:51.828Z,9.53
2019-05-04T16:03:18.705Z,9.40
2019-05-04T16:05:45.905Z,9.05
2019-05-04T16:08:12.661Z,8.78
2019-05-04T16:10:39.754Z,8.80
2019-05-04T16:13:06.452Z,9.43
2019-05-04T16:15:40.455Z,9.58
2019-05-04T16:18:01.801Z,9.33
2019-05-04T16:20:28.601Z,8.55
2019-05-04T16:22:55.294Z,8.55
2019-05-04T16:25:21.981Z,8.47
2019-05-04T16:27:49.145Z,8.28
2019-05-04T16:30:17.355Z,8.02
2019-05-04T16:32:44.514Z,8.20
2019-05-04T16:35:11.877Z,8.35
2019-05-04T16:37:38.719Z,8.08
2019-05-04T16:40:06.326Z,8.04
2019-05-04T16:42:35.470Z,7.78
2019-05-04T16:45:04.433Z,8.49
2019-05-04T16:47:31.207Z,8.82
2019-05-04T16:49:59.691Z,8.98
2019-05-04T16:52:45.207Z,9.23
2019-05-04T16:55:12.009Z,9.17
2019-05-04T16:57:40.483Z,9.42
2019-05-04T17:00:09.702Z,9.05
2019-05-04T17:02:45.784Z,9.17
2019-05-04T17:05:18.181Z,9.73
2019-05-04T17:07:44.881Z,9.21
2019-05-04T17:10:12.444Z,9.44
2019-05-04T17:12:40.690Z,9.53
2019-05-04T17:15:08.286Z,9.12
2019-05-04T17:17:35.286Z,9.00
2019-05-04T17:20:03.261Z,9.34
2019-05-04T17:22:30.046Z,9.76
2019-05-04T17:25:01.194Z,9.21
2019-05-04T17:27:46.489Z,8.75
2019-05-04T17:30:26.305Z,8.83
2019-05-04T17:32:54.602Z,8.54
2019-05-04T17:35:21.938Z,8.78
2019-05-04T17:37:48.792Z,8.79
2019-05-04T17:40:16.668Z,8.63
2019-05-04T17:42:52.011Z,8.90
2019-05-04T17:45:21.506Z,9.00
2019-05-04T17:47:49.641Z,8.74
2019-05-04T17:50:16.340Z,8.72
2019-05-04T17:52:44.414Z,8.71
2019-05-04T17:55:11.373Z,8.73
2019-05-04T17:57:38.210Z,8.56
2019-05-04T18:00:21.156Z,8.72
2019-05-04T18:02:50.206Z,9.03
2019-05-04T18:05:16.932Z,8.73
2019-05-04T18:07:44.316Z,8.41
2019-05-04T18:10:11.463Z,8.24
2019-05-04T18:12:57.736Z,8.79
2019-05-04T18:15:44.551Z,9.26
2019-05-04T18:18:31.331Z,9.17
2019-05-04T18:20:58.015Z,8.79
2019-05-04T18:23:25.790Z,8.86
2019-05-04T18:25:55.013Z,8.78
2019-05-04T18:28:21.785Z,8.27
2019-05-04T18:30:48.569Z,7.81
2019-05-04T18:33:15.257Z,7.55
2019-05-04T18:35:42.116Z,7.46
2019-05-04T18:38:08.889Z,7.34
2019-05-04T18:40:41.961Z,7.15
2019-05-04T18:43:14.311Z,7.07
2019-05-04T18:46:06.706Z,6.85
2019-05-04T18:49:10.991Z,6.86
2019-05-04T18:51:37.701Z,6.72
2019-05-04T18:54:04.869Z,6.72
2019-05-04T18:56:31.666Z,6.63
2019-05-04T18:58:58.490Z,6.64
2019-05-04T19:01:25.434Z,6.51
2019-05-04T19:03:52.443Z,6.38
2019-05-04T19:06:35.259Z,6.39
2019-05-04T19:09:05.147Z,6.25
2019-05-04T19:11:33.805Z,6.29
2019-05-04T19:14:00.482Z,6.20
2019-05-04T19:16:27.297Z,6.16
2019-05-04T19:18:54.997Z,5.89
2019-05-04T19:21:24.153Z,6.06
2019-05-04T19:23:55.854Z,6.00
2019-05-04T19:26:24.464Z,6.06
2019-05-04T19:28:51.310Z,5.89
2019-05-04T19:31:17.993Z,5.96
2019-05-04T19:33:46.153Z,5.75
2019-05-04T19:36:15.220Z,5.78
2019-05-04T19:38:42.061Z,5.51
2019-05-04T19:41:08.718Z,5.46
2019-05-04T19:43:41.535Z,5.36
2019-05-04T19:46:43.882Z,5.37
2019-05-04T19:49:12.950Z,5.48
2019-05-04T19:51:39.488Z,5.55
2019-05-04T19:54:06.602Z,5.51
2019-05-04T19:56:34.689Z,5.44
2019-05-04T19:59:04.964Z,5.41
2019-05-04T20:01:31.362Z,5.35
2019-05-04T20:03:58.152Z,5.32
2019-05-04T20:06:31.129Z,5.24
2019-05-04T20:09:05.941Z,5.19
2019-05-04T20:11:51.121Z,5.29
2019-05-04T20:14:17.915Z,5.24
2019-05-04T20:16:45.182Z,5.04
2019-05-04T20:19:11.874Z,4.89
2019-05-04T20:21:38.593Z,4.91
2019-05-04T20:24:05.720Z,4.99
2019-05-04T20:26:32.516Z,5.06
2019-05-04T20:28:59.247Z,4.83
2019-05-04T20:31:26.053Z,4.96
2019-05-04T20:33:55.356Z,4.99
2019-05-04T20:36:22.334Z,4.60
2019-05-04T20:38:49.109Z,4.69
2019-05-04T20:41:15.769Z,4.76
2019-05-04T20:43:45.431Z,4.75
2019-05-04T20:46:50.526Z,4.76
2019-05-04T20:49:21.702Z,4.72
2019-05-04T20:51:48.489Z,4.79
2019-05-04T20:54:15.173Z,4.84
2019-05-04T20:56:41.865Z,4.89
2019-05-04T20:59:08.542Z,4.86
2019-05-04T21:01:45.426Z,4.80
2019-05-04T21:04:31.812Z,4.84
2019-05-04T21:07:01.080Z,4.98
2019-05-04T21:09:27.875Z,4.94
2019-05-04T21:11:55.648Z,5.20
2019-05-04T21:14:25.000Z,5.25
2019-05-04T21:17:11.875Z,4.65
2019-05-04T21:20:00.640Z,4.55
2019-05-04T21:22:27.415Z,5.48
2019-05-04T21:24:54.876Z,5.48
2019-05-04T21:27:22.096Z,4.71
2019-05-04T21:29:48.822Z,4.17
2019-05-04T21:32:16.395Z,4.20
2019-05-04T21:34:45.141Z,4.19
2019-05-04T21:37:11.829Z,4.21
2019-05-04T21:39:38.535Z,4.40
2019-05-04T21:42:06.223Z,4.35
2019-05-04T21:44:54.433Z,4.32
2019-05-04T21:47:39.529Z,4.24
2019-05-04T21:50:37.861Z,4.18
2019-05-04T21:53:05.939Z,4.11
2019-05-04T21:55:32.822Z,3.63
2019-05-04T21:58:00.074Z,3.64
2019-05-04T22:00:45.380Z,3.74
2019-05-04T22:03:20.876Z,3.73
2019-05-04T22:05:47.566Z,3.75
2019-05-04T22:08:14.861Z,3.75
2019-05-04T22:10:41.720Z,3.75
2019-05-04T22:13:08.375Z,3.64
2019-05-04T22:15:35.154Z,3.27
2019-05-04T22:18:01.981Z,3.40
2019-05-04T22:20:28.874Z,3.71
2019-05-04T22:22:57.527Z,3.59
2019-05-04T22:25:27.020Z,3.41
2019-05-04T22:27:55.279Z,3.33
2019-05-04T22:30:22.142Z,3.12
2019-05-04T22:32:48.814Z,2.89
2019-05-04T22:35:16.604Z,2.74
2019-05-04T22:37:51.489Z,2.62
2019-05-04T22:40:18.303Z,2.67
2019-05-04T22:42:45.069Z,3.08
2019-05-04T22:45:11.954Z,3.17
2019-05-04T22:47:38.854Z,3.18
2019-05-04T22:50:06.523Z,3.47
2019-05-04T22:53:04.660Z,3.51
2019-05-04T22:55:45.367Z,3.46
2019-05-04T22:58:31.921Z,3.93
2019-05-04T23:01:33.496Z,3.66
2019-05-04T23:04:04.788Z,3.18
2019-05-04T23:06:31.702Z,3.63
2019-05-04T23:08:58.495Z,2.99
2019-05-04T23:11:25.521Z,3.05
2019-05-04T23:13:52.441Z,3.38
2019-05-04T23:16:19.141Z,3.02
2019-05-04T23:18:59.009Z,3.36
2019-05-04T23:21:15.167Z,2.95
2019-05-04T23:23:41.929Z,2.75
2019-05-04T23:26:08.723Z,2.82
2019-05-04T23:28:35.407Z,2.76
2019-05-04T23:31:02.177Z,2.81
2019-05-04T23:33:28.854Z,2.90
2019-05-04T23:35:55.720Z,2.75
2019-05-04T23:38:24.316Z,2.63
2019-05-04T23:40:51.422Z,2.40
2019-05-04T23:43:18.091Z,2.36
2019-05-04T23:45:46.475Z,2.18
2019-05-04T23:48:18.205Z,2.22
2019-05-04T23:50:45.568Z,2.28
2019-05-04T23:53:14.422Z,2.26
2019-05-04T23:55:41.226Z,2.76
2019-05-04T23:58:26.148Z,2.53
